Airfield :
LOGIN :

Register | Disclaimer

   EN    FR    IT 

 










Legend :    VFR   Marginal VFR   IFR   Intensive IFR   Very Intensive IFR
Visi :
Ceiling :
>= 8 km
>= 3000ft
5 to 8 km
1000 to 3000 ft
1500m to 5 km
500 to 1000 ft
800 to 1500m
200 to 500 ft
< 800m
< 200 ft
Symbols :   Thunderstorms  Fog  Heavy snow  Heavy precipitations  Wind > 20 kt
SIGMETs :     Misc.  Thunderstorms  Icing  Turbulence  Mountain Waves  Volcanic Ashes






- Airport Elevation : 784 ft
- IATA code : TZL


LQTZ - Tuzla

CURRENT METAR :
  • 180830Z 29005KT 8000 SCT008 OVC018 04/03 Q1015

EXPIRED METARs :
  • 180800Z 29005KT 8000 -RA BKN008 OVC018 04/03 Q1015
  • 180730Z 28004KT 8000 -RA BKN008 OVC018 03/03 Q1015
  • 180700Z 29006KT 5000 -RA BR BKN007 OVC017 03/03 Q1015
  • 180630Z 29005KT 5000 -RA BR BKN007 OVC017 03/02 Q1014
  • 180600Z 27004KT 220V310 5000 -RA BR BKN006 OVC018 03/02 Q1014

TAF TAF LQTZ
Valid from the 18 at 06:00 until the 19 at 06:00 UTC


180500Z 1806/1906 29004KT 5000 -RA FEW013 BKN030 TX07/1814Z TN03/1806Z
PROB40
TEMPO 1806/1809 2000 -RA BR BKN007 OVC020
BECMG 1810/1812 7000 NSW SCT020 BKN040
TEMPO 1819/1906 2000 BR
PROB40
TEMPO 1903/1906 0300 -DZ FG BKN002



MET'MAP, your aeronautical weather chart ! - Copyright ORBIFLY December 2007 - Disclaimer

ORBIFLY MET'MAP TEAM :

Programming & Development : Alexandra Zaïnal
Concept & original design : Baudouin d'Aumeries
Assistance for programming : Marc-Olivier Méhu
Technical & hardware support : Manuel Goepfert

Contact : metmap@orbifly.com




SOURCES & CREDITS :

   NOAA